Bluff Point, Indiana
Current Conditions -  °F | °C
As of 7:53 PM on Monday 24 Nov 2014 (Local Time) from KMIE Reporting Station
Overcast Overcast  
Wind Chill: 28°   Ceiling: 3900
Heat Index: 37°   Visibility: 10mi
Dew Point: 29°   Wind: 14mph
Humidity: 73%   Direction: 250°WSW
Pressure: 29.79"   Gusts: NA
Location:  40.4312°N, 85.0058°W
Report Text: KMIE 250053Z 25012KT 10SM OVC039 03/M02 A2979 RMK AO2 SLP086 T00281017
Loading
Personal Weather Stations






























Interactive Weather Map New forecast layout! Learn more

10-Day Weather Forecast

Advertisements
Track Severe Weather on mobile